Time;durP1;ratioP1;P1;durP2;ratioP2;P2;SDS_P1;SDS_P2;PMS_P1;PMS_P2;Temp;Humidity;BMP_temperature;BMP_pressure;BME280_temperature;BME280_humidity;BME280_pressure;Samples;Min_cycle;Max_cycle;Signal;HPM_P1;HPM_P2
2021/03/09 00:00:23;;;;;;;13.50;11.13;;;;;;;;;;5021894;28;20287;-69
2021/03/09 00:02:49;;;;;;;14.80;11.60;;;;;;;;;;5015425;28;20207;-69
2021/03/09 00:05:15;;;;;;;16.27;11.83;;;;;;;;;;5025084;28;20212;-68
2021/03/09 00:07:42;;;;;;;16.27;13.23;;;;;;;;;;5025849;28;20208;-69
2021/03/09 00:10:08;;;;;;;22.63;16.40;;;;;;;;;;5032839;28;20214;-69
2021/03/09 00:12:34;;;;;;;18.10;14.23;;;;;;;;;;5032191;28;20187;-69
2021/03/09 00:15:00;;;;;;;16.60;13.73;;;;;;;;;;5018487;28;20232;-69
2021/03/09 00:17:26;;;;;;;17.70;13.60;;;;;;;;;;5039514;28;20203;-69
2021/03/09 00:19:52;;;;;;;17.03;13.33;;;;;;;;;;5022654;28;20654;-69
2021/03/09 00:22:18;;;;;;;14.17;12.70;;;;;;;;;;5037549;28;20285;-69
2021/03/09 00:24:44;;;;;;;16.33;12.83;;;;;;;;;;5029730;28;20262;-69
2021/03/09 00:27:10;;;;;;;15.13;11.67;;;;;;;;;;5028299;28;20690;-69
2021/03/09 00:29:37;;;;;;;17.30;12.27;;;;;;;;;;5024541;28;20176;-68
2021/03/09 00:32:03;;;;;;;18.40;13.07;;;;;;;;;;5023027;28;20187;-69
2021/03/09 00:34:29;;;;;;;16.93;12.83;;;;;;;;;;5024956;28;20181;-69
2021/03/09 00:36:55;;;;;;;17.77;12.27;;;;;;;;;;5020568;28;20213;-69
2021/03/09 00:39:21;;;;;;;14.27;12.40;;;;;;;;;;5018488;28;20192;-69
2021/03/09 00:41:47;;;;;;;17.33;12.73;;;;;;;;;;5023266;28;20248;-69
2021/03/09 00:44:13;;;;;;;13.90;11.40;;;;;;;;;;5021263;28;20657;-69
2021/03/09 00:46:39;;;;;;;17.07;12.47;;;;;;;;;;5016958;28;20687;-69
2021/03/09 00:49:05;;;;;;;14.63;12.80;;;;;;;;;;5024331;28;20188;-69
2021/03/09 00:51:31;;;;;;;15.93;13.40;;;;;;;;;;5021765;28;20191;-69
2021/03/09 00:53:57;;;;;;;15.33;12.50;;;;;;;;;;5020648;28;20199;-69
2021/03/09 00:56:24;;;;;;;15.13;13.00;;;;;;;;;;5017711;28;20212;-69
2021/03/09 00:58:49;;;;;;;14.90;13.30;;;;;;;;;;5033881;28;20214;-69
2021/03/09 01:01:15;;;;;;;16.50;12.93;;;;;;;;;;5020235;28;20192;-69
2021/03/09 01:03:41;;;;;;;14.17;12.63;;;;;;;;;;5022078;28;20593;-69
2021/03/09 01:06:07;;;;;;;17.43;13.57;;;;;;;;;;5031103;28;20208;-69
2021/03/09 01:08:33;;;;;;;18.20;14.13;;;;;;;;;;5023074;28;20191;-69
2021/03/09 01:10:59;;;;;;;17.80;13.63;;;;;;;;;;5031056;28;20235;-69
2021/03/09 01:13:25;;;;;;;21.77;14.10;;;;;;;;;;5035110;28;20195;-69
2021/03/09 01:15:51;;;;;;;25.67;16.77;;;;;;;;;;5032698;28;20583;-69
2021/03/09 01:18:18;;;;;;;19.17;14.53;;;;;;;;;;5026852;28;20272;-69
2021/03/09 01:20:44;;;;;;;15.70;13.60;;;;;;;;;;5016398;28;20196;-69
2021/03/09 01:23:10;;;;;;;21.03;13.77;;;;;;;;;;5025190;28;20286;-69
2021/03/09 01:25:36;;;;;;;15.57;13.20;;;;;;;;;;5021339;28;20210;-69
2021/03/09 01:28:02;;;;;;;17.17;13.17;;;;;;;;;;5033523;28;20200;-69
2021/03/09 01:30:28;;;;;;;16.33;12.93;;;;;;;;;;5021726;28;20184;-69
2021/03/09 01:32:54;;;;;;;13.77;12.07;;;;;;;;;;5027634;28;20207;-69
2021/03/09 01:35:20;;;;;;;14.57;12.93;;;;;;;;;;5039793;28;20290;-69
2021/03/09 01:37:46;;;;;;;16.33;13.07;;;;;;;;;;5020735;28;20620;-69
2021/03/09 01:40:12;;;;;;;16.77;13.43;;;;;;;;;;5017796;28;20191;-69
2021/03/09 01:42:38;;;;;;;16.33;13.43;;;;;;;;;;5018652;28;20194;-69
2021/03/09 01:45:06;;;;;;;17.07;13.07;;;;;;;;;;5017537;28;20623;-69
2021/03/09 01:47:32;;;;;;;14.57;12.03;;;;;;;;;;5023088;28;20253;-69
2021/03/09 01:49:59;;;;;;;14.30;11.67;;;;;;;;;;5018929;28;20207;-69
2021/03/09 01:52:25;;;;;;;16.70;13.30;;;;;;;;;;5027399;28;20190;-69
2021/03/09 01:54:51;;;;;;;16.47;12.93;;;;;;;;;;5032027;28;20618;-69
2021/03/09 01:57:17;;;;;;;19.50;12.97;;;;;;;;;;5024788;28;20187;-68
2021/03/09 01:59:45;;;;;;;13.43;12.03;;;;;;;;;;5020749;28;20557;-69
2021/03/09 02:02:11;;;;;;;15.70;13.10;;;;;;;;;;5026856;28;20288;-69
2021/03/09 02:04:37;;;;;;;17.13;14.10;;;;;;;;;;5031821;28;21554;-69
2021/03/09 02:07:03;;;;;;;14.77;12.70;;;;;;;;;;5022939;28;20220;-69
2021/03/09 02:09:30;;;;;;;15.77;12.97;;;;;;;;;;5027762;28;20213;-69
2021/03/09 02:11:55;;;;;;;16.13;12.93;;;;;;;;;;5030147;28;20189;-69
2021/03/09 02:14:27;;;;;;;17.70;13.27;;;;;;;;;;5028276;28;20185;-69
2021/03/09 02:16:56;;;;;;;17.83;12.50;;;;;;;;;;5044738;28;20259;-69
2021/03/09 02:19:35;;;;;;;18.00;13.57;;;;;;;;;;5024251;28;20191;-68
2021/03/09 02:22:01;;;;;;;18.73;13.67;;;;;;;;;;5027193;28;20277;-69
2021/03/09 02:24:59;;;;;;;14.83;11.97;;;;;;;;;;5025288;28;20232;-69
2021/03/09 02:27:45;;;;;;;16.97;12.60;;;;;;;;;;5025568;28;20271;-69
2021/03/09 02:30:16;;;;;;;16.37;13.43;;;;;;;;;;5020298;28;20184;-68
2021/03/09 02:32:44;;;;;;;17.37;13.67;;;;;;;;;;5032179;28;20688;-69
2021/03/09 02:35:16;;;;;;;15.70;13.03;;;;;;;;;;5028488;28;20569;-69
2021/03/09 02:37:43;;;;;;;16.90;13.27;;;;;;;;;;5020992;28;20271;-69
2021/03/09 02:40:13;;;;;;;16.67;13.37;;;;;;;;;;5026372;28;20199;-69
2021/03/09 02:42:44;;;;;;;19.93;13.60;;;;;;;;;;5026128;28;20375;-69
2021/03/09 02:45:11;;;;;;;18.67;14.33;;;;;;;;;;5032497;28;20299;-69
2021/03/09 02:47:37;;;;;;;16.63;14.23;;;;;;;;;;5029376;28;20217;-69
2021/03/09 02:50:03;;;;;;;16.53;13.90;;;;;;;;;;5026977;28;21159;-69
2021/03/09 02:52:31;;;;;;;16.70;13.47;;;;;;;;;;5019112;28;20186;-69
2021/03/09 02:54:58;;;;;;;17.03;13.47;;;;;;;;;;5027204;28;20260;-69
2021/03/09 02:57:24;;;;;;;17.73;13.50;;;;;;;;;;5019889;28;20198;-69
2021/03/09 02:59:50;;;;;;;17.50;13.50;;;;;;;;;;5027302;28;20190;-69
2021/03/09 03:02:20;;;;;;;15.67;13.17;;;;;;;;;;5028628;28;20195;-69
2021/03/09 03:04:47;;;;;;;15.80;13.10;;;;;;;;;;5021272;28;20832;-69
2021/03/09 03:07:14;;;;;;;16.03;13.87;;;;;;;;;;5025654;28;20218;-69
2021/03/09 03:09:41;;;;;;;16.23;12.40;;;;;;;;;;5035426;28;20190;-69
2021/03/09 03:12:07;;;;;;;17.00;13.83;;;;;;;;;;5021777;28;20192;-69
2021/03/09 03:14:33;;;;;;;19.63;13.87;;;;;;;;;;5017648;28;20565;-69
2021/03/09 03:17:02;;;;;;;18.27;14.27;;;;;;;;;;5039289;28;20210;-69
2021/03/09 03:19:28;;;;;;;16.80;13.33;;;;;;;;;;5021863;28;20194;-69
2021/03/09 03:21:55;;;;;;;15.27;13.70;;;;;;;;;;5037378;28;20218;-69
2021/03/09 03:24:21;;;;;;;16.47;14.43;;;;;;;;;;5023436;28;20680;-69
2021/03/09 03:26:47;;;;;;;17.70;14.40;;;;;;;;;;5025657;28;20715;-69
2021/03/09 03:29:15;;;;;;;17.10;13.63;;;;;;;;;;5027503;28;20615;-69
2021/03/09 03:31:41;;;;;;;15.67;13.43;;;;;;;;;;5024923;28;20226;-69
2021/03/09 03:34:07;;;;;;;19.03;14.23;;;;;;;;;;5021073;28;20648;-69
2021/03/09 03:36:34;;;;;;;14.80;13.17;;;;;;;;;;5026746;28;20214;-69
2021/03/09 03:39:00;;;;;;;15.87;13.50;;;;;;;;;;5019019;28;20199;-69
2021/03/09 03:41:26;;;;;;;20.13;14.07;;;;;;;;;;5030053;28;20262;-69
2021/03/09 03:43:52;;;;;;;17.80;14.57;;;;;;;;;;5018278;28;20712;-69
2021/03/09 03:46:19;;;;;;;15.83;13.70;;;;;;;;;;5022418;28;20220;-69
2021/03/09 03:48:46;;;;;;;19.87;16.67;;;;;;;;;;5019405;28;20198;-69
2021/03/09 03:51:14;;;;;;;21.87;16.83;;;;;;;;;;5029608;28;20241;-69
2021/03/09 03:53:59;;;;;;;19.57;15.50;;;;;;;;;;5023457;28;20190;-69
2021/03/09 03:56:38;;;;;;;17.47;15.03;;;;;;;;;;5028265;28;20587;-69
2021/03/09 03:59:07;;;;;;;19.73;14.40;;;;;;;;;;5015245;28;20261;-69
2021/03/09 04:01:33;;;;;;;16.43;13.83;;;;;;;;;;5030052;28;20240;-69
2021/03/09 04:04:01;;;;;;;18.33;15.30;;;;;;;;;;5023162;28;20830;-70
2021/03/09 04:06:27;;;;;;;18.50;14.07;;;;;;;;;;5027837;28;20771;-71
2021/03/09 04:08:57;;;;;;;18.93;13.90;;;;;;;;;;5040640;28;20183;-69
2021/03/09 04:11:24;;;;;;;16.73;14.30;;;;;;;;;;5022268;28;20186;-69
2021/03/09 04:13:51;;;;;;;16.70;14.93;;;;;;;;;;5016821;28;20218;-69
2021/03/09 04:16:17;;;;;;;17.63;14.80;;;;;;;;;;5028979;28;20208;-69
2021/03/09 04:18:44;;;;;;;19.67;16.20;;;;;;;;;;5029399;28;20194;-70
2021/03/09 04:21:11;;;;;;;18.17;15.43;;;;;;;;;;5032701;28;20190;-69
2021/03/09 04:23:38;;;;;;;21.63;15.70;;;;;;;;;;5034257;28;20201;-69
2021/03/09 04:26:04;;;;;;;20.73;16.07;;;;;;;;;;5021034;28;20686;-69
2021/03/09 04:28:31;;;;;;;21.13;17.03;;;;;;;;;;5021783;28;20273;-69
2021/03/09 04:30:57;;;;;;;20.13;16.47;;;;;;;;;;5035064;28;20196;-69
2021/03/09 04:33:26;;;;;;;18.67;15.90;;;;;;;;;;5025946;28;20189;-69
2021/03/09 04:35:52;;;;;;;18.83;16.83;;;;;;;;;;5034962;28;20568;-69
2021/03/09 04:38:18;;;;;;;18.83;16.17;;;;;;;;;;5018012;28;20192;-69
2021/03/09 04:40:44;;;;;;;19.63;16.30;;;;;;;;;;5020494;28;20734;-69
2021/03/09 04:43:10;;;;;;;21.60;17.20;;;;;;;;;;5024415;28;20210;-69
2021/03/09 04:45:36;;;;;;;18.80;15.53;;;;;;;;;;5024931;28;20666;-69
2021/03/09 04:48:03;;;;;;;18.03;16.13;;;;;;;;;;5016194;28;20213;-69
2021/03/09 04:50:29;;;;;;;19.97;16.57;;;;;;;;;;5030860;28;20537;-69
2021/03/09 04:52:55;;;;;;;19.70;16.60;;;;;;;;;;5015822;28;20196;-70
2021/03/09 04:55:22;;;;;;;18.17;16.03;;;;;;;;;;5023838;28;20206;-69
2021/03/09 04:57:48;;;;;;;18.33;16.27;;;;;;;;;;5026699;28;20183;-69
2021/03/09 05:00:24;;;;;;;19.80;15.83;;;;;;;;;;5020062;28;20206;-71
2021/03/09 05:02:51;;;;;;;19.87;16.40;;;;;;;;;;5021667;28;20198;-69
2021/03/09 05:05:18;;;;;;;27.67;16.70;;;;;;;;;;5024344;28;20268;-69
2021/03/09 05:07:44;;;;;;;21.90;17.00;;;;;;;;;;5012878;28;20345;-68
2021/03/09 05:10:11;;;;;;;20.53;16.07;;;;;;;;;;5019558;28;20195;-69
2021/03/09 05:12:41;;;;;;;20.10;16.10;;;;;;;;;;5019577;28;20564;-69
2021/03/09 05:15:07;;;;;;;23.10;17.57;;;;;;;;;;5031235;28;20685;-69
2021/03/09 05:17:33;;;;;;;21.40;16.93;;;;;;;;;;5021681;28;20824;-69
2021/03/09 05:20:00;;;;;;;20.80;17.27;;;;;;;;;;5017687;28;20239;-69
2021/03/09 05:22:26;;;;;;;20.30;16.87;;;;;;;;;;5021807;28;20252;-69
2021/03/09 05:24:52;;;;;;;22.30;18.43;;;;;;;;;;5030738;28;20211;-69
2021/03/09 05:27:18;;;;;;;21.83;17.30;;;;;;;;;;5026017;28;20206;-69
2021/03/09 05:29:44;;;;;;;24.97;17.43;;;;;;;;;;5026480;28;20183;-69
2021/03/09 05:32:10;;;;;;;23.30;18.13;;;;;;;;;;5019411;28;20182;-69
2021/03/09 05:34:35;;;;;;;20.77;17.40;;;;;;;;;;5020089;28;20572;-69
2021/03/09 05:37:01;;;;;;;22.53;17.47;;;;;;;;;;5023027;28;20215;-69
2021/03/09 05:39:27;;;;;;;22.70;19.20;;;;;;;;;;5031078;28;20183;-68
2021/03/09 05:41:53;;;;;;;21.93;17.37;;;;;;;;;;5029301;28;20216;-69
2021/03/09 05:44:19;;;;;;;25.00;17.27;;;;;;;;;;5029163;28;20693;-69
2021/03/09 05:46:46;;;;;;;30.93;19.07;;;;;;;;;;5037320;28;20255;-69
2021/03/09 05:49:12;;;;;;;23.40;16.77;;;;;;;;;;5020393;28;20223;-68
2021/03/09 05:51:38;;;;;;;23.93;18.13;;;;;;;;;;5018622;28;20215;-71
2021/03/09 05:54:04;;;;;;;23.47;18.17;;;;;;;;;;5024743;28;20196;-71
2021/03/09 05:56:30;;;;;;;25.03;17.43;;;;;;;;;;5021275;28;20216;-71
2021/03/09 05:58:57;;;;;;;23.73;17.77;;;;;;;;;;5029356;28;20176;-70
2021/03/09 06:01:23;;;;;;;23.10;17.67;;;;;;;;;;5030151;28;20273;-71
2021/03/09 06:03:49;;;;;;;27.33;17.77;;;;;;;;;;5028235;28;20191;-70
2021/03/09 06:06:15;;;;;;;28.27;18.13;;;;;;;;;;5027562;28;20222;-69
2021/03/09 06:08:41;;;;;;;26.97;16.70;;;;;;;;;;5033581;28;21082;-69
2021/03/09 06:11:17;;;;;;;24.87;17.13;;;;;;;;;;5025698;28;20188;-70
2021/03/09 06:13:44;;;;;;;26.17;16.80;;;;;;;;;;5025899;28;20183;-69
2021/03/09 06:16:10;;;;;;;23.67;17.63;;;;;;;;;;5019687;28;20218;-69
2021/03/09 06:18:36;;;;;;;20.33;16.83;;;;;;;;;;5023872;28;20665;-68
2021/03/09 06:21:09;;;;;;;18.83;16.83;;;;;;;;;;5019208;28;20188;-69
2021/03/09 06:23:35;;;;;;;23.93;17.70;;;;;;;;;;5027334;28;20842;-69
2021/03/09 06:26:01;;;;;;;21.47;17.23;;;;;;;;;;5018335;28;20243;-69
2021/03/09 06:28:31;;;;;;;20.57;16.07;;;;;;;;;;5022457;28;20190;-69
2021/03/09 06:30:59;;;;;;;20.70;16.87;;;;;;;;;;5015749;28;20209;-69
2021/03/09 06:33:32;;;;;;;21.57;17.60;;;;;;;;;;5024469;28;20199;-69
2021/03/09 06:36:01;;;;;;;19.60;17.50;;;;;;;;;;5021609;28;20207;-69
2021/03/09 06:38:30;;;;;;;18.10;16.13;;;;;;;;;;5017204;28;20183;-70
2021/03/09 06:41:12;;;;;;;20.27;17.27;;;;;;;;;;5016751;28;20760;-70
2021/03/09 06:43:39;;;;;;;19.97;17.17;;;;;;;;;;5028406;28;20309;-70
2021/03/09 06:46:23;;;;;;;21.10;17.23;;;;;;;;;;5022949;28;20242;-70
2021/03/09 06:48:50;;;;;;;20.60;17.00;;;;;;;;;;5019123;28;20248;-69
2021/03/09 06:51:25;;;;;;;18.67;16.27;;;;;;;;;;5022934;28;20565;-69
2021/03/09 06:54:02;;;;;;;18.47;15.93;;;;;;;;;;5015888;28;20276;-69
2021/03/09 06:56:29;;;;;;;19.90;15.40;;;;;;;;;;5033877;28;20210;-70
2021/03/09 06:58:55;;;;;;;18.97;15.63;;;;;;;;;;5029650;28;20737;-70
2021/03/09 07:01:21;;;;;;;19.57;16.67;;;;;;;;;;5013039;28;20195;-69
2021/03/09 07:03:47;;;;;;;19.30;14.60;;;;;;;;;;5018171;28;20674;-69
2021/03/09 07:06:13;;;;;;;20.83;15.37;;;;;;;;;;5023274;28;20217;-70
2021/03/09 07:08:39;;;;;;;20.47;15.73;;;;;;;;;;5018204;28;20264;-69
2021/03/09 07:11:05;;;;;;;16.83;15.07;;;;;;;;;;5023209;28;20193;-70
2021/03/09 07:13:31;;;;;;;18.23;15.87;;;;;;;;;;5023413;28;20189;-70
2021/03/09 07:15:57;;;;;;;19.67;15.50;;;;;;;;;;5021852;28;20205;-70
2021/03/09 07:18:24;;;;;;;20.60;15.77;;;;;;;;;;5023366;28;20183;-69
2021/03/09 07:20:54;;;;;;;17.70;15.87;;;;;;;;;;5028423;28;20255;-69
2021/03/09 07:23:23;;;;;;;18.83;14.90;;;;;;;;;;5017717;28;20201;-69
2021/03/09 07:25:53;;;;;;;19.53;15.93;;;;;;;;;;5024577;28;20207;-69
2021/03/09 07:28:20;;;;;;;16.83;14.93;;;;;;;;;;5023012;28;20818;-69
2021/03/09 07:30:47;;;;;;;17.17;15.37;;;;;;;;;;5022676;28;20599;-70
2021/03/09 07:33:13;;;;;;;19.03;15.70;;;;;;;;;;5022411;28;20180;-69
2021/03/09 07:35:40;;;;;;;18.77;15.00;;;;;;;;;;5024106;28;20200;-69
2021/03/09 07:38:06;;;;;;;16.23;14.43;;;;;;;;;;5015184;28;20195;-69
2021/03/09 07:40:35;;;;;;;19.17;13.83;;;;;;;;;;5028306;28;20249;-69
2021/03/09 07:43:01;;;;;;;15.13;13.57;;;;;;;;;;5012482;28;20195;-70
2021/03/09 07:45:30;;;;;;;15.67;13.57;;;;;;;;;;5015316;28;20710;-69
2021/03/09 07:48:00;;;;;;;14.40;12.90;;;;;;;;;;5012062;28;20208;-69
2021/03/09 07:50:32;;;;;;;18.23;12.80;;;;;;;;;;5020207;28;20188;-70
2021/03/09 07:52:58;;;;;;;15.27;12.80;;;;;;;;;;5021667;28;20188;-69
2021/03/09 07:55:25;;;;;;;13.40;11.93;;;;;;;;;;5023208;28;20716;-69
2021/03/09 07:58:11;;;;;;;20.90;13.93;;;;;;;;;;5023740;28;20196;-69
2021/03/09 08:00:56;;;;;;;14.77;13.27;;;;;;;;;;5025403;28;20187;-70
2021/03/09 08:03:39;;;;;;;15.20;13.27;;;;;;;;;;5029086;28;20188;-70
2021/03/09 08:06:09;;;;;;;15.60;13.33;;;;;;;;;;5014112;28;20208;-70
2021/03/09 08:08:38;;;;;;;14.80;12.77;;;;;;;;;;5016125;28;20185;-69
2021/03/09 08:11:05;;;;;;;13.80;12.23;;;;;;;;;;5033340;28;20181;-72
2021/03/09 08:13:31;;;;;;;15.10;12.37;;;;;;;;;;5021839;28;20219;-69
2021/03/09 08:16:16;;;;;;;15.30;12.50;;;;;;;;;;5023657;28;20208;-69
2021/03/09 08:18:42;;;;;;;14.10;12.70;;;;;;;;;;5026606;28;20185;-69
2021/03/09 08:21:08;;;;;;;14.57;12.43;;;;;;;;;;5023961;28;20290;-70
2021/03/09 08:23:35;;;;;;;16.63;12.90;;;;;;;;;;5020998;28;20221;-69
2021/03/09 08:26:06;;;;;;;14.37;12.30;;;;;;;;;;5022578;28;20687;-70
2021/03/09 08:28:36;;;;;;;15.77;13.27;;;;;;;;;;5023114;28;20211;-69
2021/03/09 08:31:15;;;;;;;16.03;14.30;;;;;;;;;;5026109;28;20215;-69
2021/03/09 08:33:44;;;;;;;20.70;14.53;;;;;;;;;;5018388;28;20192;-69
2021/03/09 08:36:20;;;;;;;16.27;14.60;;;;;;;;;;5016523;28;20295;-71
2021/03/09 08:41:47;;;;;;;17.47;15.03;;;;;;;;;;5013638;28;20196;-69
2021/03/09 08:44:18;;;;;;;26.90;14.70;;;;;;;;;;5022713;28;20613;-69
2021/03/09 08:47:04;;;;;;;20.10;15.03;;;;;;;;;;5014369;28;20212;-69
2021/03/09 08:49:37;;;;;;;16.73;13.73;;;;;;;;;;5017222;28;20761;-70
2021/03/09 08:52:03;;;;;;;15.17;13.67;;;;;;;;;;5022837;28;20188;-71
2021/03/09 08:54:31;;;;;;;15.60;13.30;;;;;;;;;;5018331;28;20251;-70
2021/03/09 08:56:59;;;;;;;23.07;16.23;;;;;;;;;;5020960;28;20219;-70
2021/03/09 08:59:26;;;;;;;15.18;13.68;;;;;;;;;;5023424;28;20807;-70
2021/03/09 09:01:52;;;;;;;15.18;12.93;;;;;;;;;;5016668;28;20185;-71
2021/03/09 09:04:18;;;;;;;15.65;13.60;;;;;;;;;;5017935;28;20239;-70
2021/03/09 09:06:45;;;;;;;14.57;13.15;;;;;;;;;;5012780;28;20213;-70
2021/03/09 09:09:11;;;;;;;15.00;13.43;;;;;;;;;;5027251;28;20185;-69
2021/03/09 09:11:37;;;;;;;17.85;15.27;;;;;;;;;;5024739;28;20181;-69
2021/03/09 09:14:16;;;;;;;15.60;14.13;;;;;;;;;;5030300;28;20190;-69
2021/03/09 09:16:42;;;;;;;18.02;14.93;;;;;;;;;;5018572;28;20679;-69
2021/03/09 09:19:08;;;;;;;15.43;13.47;;;;;;;;;;5018591;28;20562;-69
2021/03/09 09:21:44;;;;;;;22.88;17.48;;;;;;;;;;5027298;28;20189;-70
2021/03/09 09:24:19;;;;;;;19.98;17.30;;;;;;;;;;5022344;28;20257;-70
2021/03/09 09:26:46;;;;;;;23.23;18.88;;;;;;;;;;5024990;28;20217;-69
2021/03/09 09:29:12;;;;;;;14.88;13.40;;;;;;;;;;5026072;28;20180;-70
2021/03/09 09:31:38;;;;;;;14.77;13.25;;;;;;;;;;5020627;28;20242;-69
2021/03/09 09:34:05;;;;;;;16.02;14.50;;;;;;;;;;5020360;28;20195;-70
2021/03/09 09:36:31;;;;;;;14.55;13.10;;;;;;;;;;5028861;28;20210;-69
2021/03/09 09:38:57;;;;;;;16.02;13.65;;;;;;;;;;5020380;28;20219;-70
2021/03/09 09:41:24;;;;;;;14.05;12.77;;;;;;;;;;5023585;28;20269;-71
2021/03/09 09:43:50;;;;;;;16.90;14.82;;;;;;;;;;5024152;28;20196;-70
2021/03/09 09:46:22;;;;;;;18.88;15.82;;;;;;;;;;5024231;28;20211;-68
2021/03/09 09:48:48;;;;;;;24.23;19.98;;;;;;;;;;5024262;28;20202;-71
2021/03/09 09:51:16;;;;;;;13.95;12.55;;;;;;;;;;5022814;28;20181;-71
2021/03/09 09:53:43;;;;;;;14.63;13.13;;;;;;;;;;5018408;28;20176;-70
2021/03/09 09:56:16;;;;;;;14.52;13.13;;;;;;;;;;5018878;28;20204;-70
2021/03/09 09:58:42;;;;;;;12.80;11.32;;;;;;;;;;5014386;28;20187;-70
2021/03/09 10:01:08;;;;;;;13.68;12.43;;;;;;;;;;5034784;28;20183;-70
2021/03/09 10:03:49;;;;;;;13.52;12.23;;;;;;;;;;5021310;28;20184;-70
2021/03/09 10:06:16;;;;;;;13.90;11.82;;;;;;;;;;5026045;28;20754;-70
2021/03/09 10:08:42;;;;;;;12.32;11.23;;;;;;;;;;5018745;28;20708;-70
2021/03/09 10:11:10;;;;;;;12.55;11.35;;;;;;;;;;5016260;28;20231;-70
2021/03/09 10:13:36;;;;;;;12.60;11.32;;;;;;;;;;5016547;28;20272;-71
2021/03/09 10:16:02;;;;;;;13.38;12.02;;;;;;;;;;5015020;28;20282;-70
2021/03/09 10:18:29;;;;;;;13.05;11.75;;;;;;;;;;5013839;28;20702;-70
2021/03/09 10:21:12;;;;;;;15.00;11.70;;;;;;;;;;5014442;28;20176;-70
2021/03/09 10:23:51;;;;;;;16.73;11.70;;;;;;;;;;5015446;28;20230;-70
2021/03/09 10:26:25;;;;;;;12.27;11.18;;;;;;;;;;5021893;28;20216;-70
2021/03/09 10:28:59;;;;;;;12.68;11.57;;;;;;;;;;5016164;28;20605;-70
2021/03/09 10:31:25;;;;;;;13.15;11.80;;;;;;;;;;5020947;28;20194;-70
2021/03/09 10:34:03;;;;;;;12.07;10.90;;;;;;;;;;5032730;28;20267;-70
2021/03/09 10:36:46;;;;;;;12.88;11.70;;;;;;;;;;5029630;28;20228;-70
2021/03/09 10:39:12;;;;;;;11.65;10.23;;;;;;;;;;5023858;28;20185;-70
2021/03/09 10:41:38;;;;;;;12.10;10.98;;;;;;;;;;5020409;28;20193;-70
2021/03/09 10:44:04;;;;;;;13.77;10.68;;;;;;;;;;5025387;28;20721;-71
2021/03/09 10:46:34;;;;;;;13.73;11.02;;;;;;;;;;5020794;28;20204;-71
2021/03/09 10:49:00;;;;;;;11.73;10.27;;;;;;;;;;5020408;28;20233;-70
2021/03/09 10:51:26;;;;;;;12.05;10.77;;;;;;;;;;5028073;28;20215;-71
2021/03/09 10:53:52;;;;;;;11.80;10.77;;;;;;;;;;5024060;28;20191;-70
2021/03/09 10:56:18;;;;;;;13.52;10.50;;;;;;;;;;5032760;28;20279;-70
2021/03/09 10:58:44;;;;;;;14.60;10.65;;;;;;;;;;5028423;28;20618;-70
2021/03/09 11:01:10;;;;;;;13.73;11.82;;;;;;;;;;5023094;28;20180;-70
2021/03/09 11:03:36;;;;;;;12.60;10.30;;;;;;;;;;5018248;28;20183;-71
2021/03/09 11:06:02;;;;;;;12.55;10.75;;;;;;;;;;5025283;28;20196;-71
2021/03/09 11:08:28;;;;;;;12.40;10.52;;;;;;;;;;5030136;28;20189;-71
2021/03/09 11:10:55;;;;;;;11.60;10.32;;;;;;;;;;5022601;28;20652;-71
2021/03/09 11:13:22;;;;;;;14.93;10.43;;;;;;;;;;5022250;28;20184;-70
2021/03/09 11:15:48;;;;;;;10.52;9.52;;;;;;;;;;5027473;28;20718;-70
2021/03/09 11:18:14;;;;;;;10.88;9.77;;;;;;;;;;5026687;28;20182;-70
2021/03/09 11:20:43;;;;;;;10.60;9.10;;;;;;;;;;5023374;28;20193;-70
2021/03/09 11:23:09;;;;;;;10.55;9.55;;;;;;;;;;5024884;28;20200;-70
2021/03/09 11:25:36;;;;;;;10.60;9.50;;;;;;;;;;5022182;28;20207;-70
2021/03/09 11:28:03;;;;;;;12.18;9.82;;;;;;;;;;5026918;28;20217;-71
2021/03/09 11:30:29;;;;;;;10.70;9.18;;;;;;;;;;5027084;28;20822;-70
2021/03/09 11:32:55;;;;;;;10.77;8.68;;;;;;;;;;5023467;28;20181;-70
2021/03/09 11:35:21;;;;;;;9.43;8.52;;;;;;;;;;5018926;28;20801;-70
2021/03/09 11:37:47;;;;;;;9.70;8.15;;;;;;;;;;5022914;28;20266;-70
2021/03/09 11:40:13;;;;;;;10.52;8.43;;;;;;;;;;5014884;28;20192;-70
2021/03/09 11:42:40;;;;;;;14.35;8.55;;;;;;;;;;5022087;28;20191;-70
2021/03/09 11:45:06;;;;;;;22.77;20.17;;;;;;;;;;5031886;28;20204;-70
2021/03/09 11:47:32;;;;;;;14.15;12.32;;;;;;;;;;5024206;28;20250;-70
2021/03/09 11:49:58;;;;;;;10.63;9.63;;;;;;;;;;5025023;28;20273;-70
2021/03/09 11:52:24;;;;;;;9.15;8.35;;;;;;;;;;5017109;28;20193;-70
2021/03/09 11:54:50;;;;;;;9.55;8.65;;;;;;;;;;5024463;28;20212;-70
2021/03/09 11:57:16;;;;;;;11.52;10.43;;;;;;;;;;5026401;28;20196;-70
2021/03/09 11:59:42;;;;;;;9.55;8.65;;;;;;;;;;5033982;28;20179;-70
2021/03/09 12:02:08;;;;;;;10.82;9.07;;;;;;;;;;5020438;28;20824;-70
2021/03/09 12:04:34;;;;;;;8.88;7.75;;;;;;;;;;5023963;28;20194;-71
2021/03/09 12:07:00;;;;;;;8.45;7.75;;;;;;;;;;5027795;28;20240;-70
2021/03/09 12:09:26;;;;;;;8.73;7.43;;;;;;;;;;5025546;28;21082;-71
2021/03/09 12:11:52;;;;;;;9.25;8.35;;;;;;;;;;5031363;28;20189;-70
2021/03/09 12:14:19;;;;;;;7.70;7.10;;;;;;;;;;5026639;28;20259;-71
2021/03/09 12:16:45;;;;;;;9.63;7.47;;;;;;;;;;5024556;28;20208;-70
2021/03/09 12:19:11;;;;;;;10.13;7.53;;;;;;;;;;5025270;28;20192;-70
2021/03/09 12:21:37;;;;;;;7.80;7.10;;;;;;;;;;5018381;28;20200;-71
2021/03/09 12:24:03;;;;;;;8.18;6.70;;;;;;;;;;5027306;28;20195;-71
2021/03/09 12:26:30;;;;;;;7.65;7.05;;;;;;;;;;5024979;28;20267;-70
2021/03/09 12:28:56;;;;;;;8.48;7.53;;;;;;;;;;5025803;28;20181;-71
2021/03/09 12:31:22;;;;;;;9.55;8.65;;;;;;;;;;5026863;28;20256;-70
2021/03/09 12:33:48;;;;;;;8.88;7.97;;;;;;;;;;5027164;28;20711;-71
2021/03/09 12:36:14;;;;;;;8.00;7.30;;;28.60;23.70;;;;;;5024963;28;20201;-70
2021/03/09 12:38:39;;;;;;;8.27;7.35;;;19.40;36.80;;;;;;5023303;28;20203;-70
2021/03/09 12:41:05;;;;;;;7.35;6.65;;;19.70;37.00;;;;;;5023822;28;20188;-71
2021/03/09 12:43:30;;;;;;;8.73;7.43;;;20.50;34.30;;;;;;5021278;28;20185;-71
2021/03/09 12:45:56;;;;;;;8.88;7.53;;;20.90;31.70;;;;;;5025433;28;20208;-71
2021/03/09 12:48:22;;;;;;;7.50;6.90;;;21.30;31.70;;;;;;5027678;28;20192;-71
2021/03/09 12:50:47;;;;;;;6.93;6.38;;;21.70;31.50;;;;;;5027039;28;20208;-71
2021/03/09 12:53:13;;;;;;;7.25;6.50;;;21.50;30.50;;;;;;5019450;28;20185;-70
2021/03/09 12:55:39;;;;;;;7.05;6.45;;;21.30;29.90;;;;;;5025106;28;20196;-71
2021/03/09 12:58:04;;;;;;;6.88;6.28;;;21.20;29.10;;;;;;5028336;28;20609;-71
2021/03/09 13:00:30;;;;;;;7.40;6.63;;;21.00;32.30;;;;;;5029437;28;20190;-71
2021/03/09 13:02:56;;;;;;;7.22;6.65;;;20.80;32.10;;;;;;5030552;28;20188;-71
2021/03/09 13:05:22;;;;;;;6.97;6.45;;;20.40;30.80;;;;;;5014495;28;20687;-71
2021/03/09 13:07:47;;;;;;;7.68;6.72;;;20.50;33.30;;;;;;5020364;28;20201;-70
2021/03/09 13:10:14;;;;;;;6.85;6.22;;;;;;;;;;5025076;28;20577;-70
2021/03/09 13:12:40;;;;;;;6.93;6.32;;;;;;;;;;5013688;28;20215;-70
2021/03/09 13:15:10;;;;;;;8.98;6.90;;;;;;;;;;5029579;28;20227;-70
2021/03/09 13:17:37;;;;;;;7.40;6.68;;;;;;;;;;5024361;28;20238;-70
2021/03/09 13:20:13;;;;;;;8.80;7.78;;;;;;;;;;5015955;28;20185;-70
2021/03/09 13:22:40;;;;;;;7.88;7.13;;;;;;;;;;5014998;28;20299;-71
2021/03/09 13:25:06;;;;;;;7.60;6.90;;;;;;;;;;5017426;28;20221;-71
2021/03/09 13:27:32;;;;;;;9.25;7.60;;;;;;;;;;5025192;28;20229;-71
2021/03/09 13:29:58;;;;;;;7.38;6.72;;;;;;;;;;5022253;28;20244;-71
2021/03/09 13:32:24;;;;;;;8.25;7.55;;;;;;;;;;5016193;28;20180;-71
2021/03/09 13:34:50;;;;;;;8.30;7.60;;;;;;;;;;5022757;28;20246;-70
2021/03/09 13:37:18;;;;;;;8.88;8.05;;;;;;;;;;5013660;28;20211;-71
2021/03/09 13:39:44;;;;;;;10.25;8.10;;;;;;;;;;5019976;28;20208;-71
2021/03/09 13:42:10;;;;;;;8.75;7.93;;;;;;;;;;5010680;28;20200;-71
2021/03/09 13:44:36;;;;;;;8.80;7.88;;;;;;;;;;5016262;28;20709;-71
2021/03/09 13:47:02;;;;;;;9.52;8.38;;;;;;;;;;5012054;28;20236;-70
2021/03/09 13:49:28;;;;;;;8.77;7.97;;;;;;;;;;5024775;28;20195;-70
2021/03/09 13:51:54;;;;;;;9.13;8.23;;;;;;;;;;5021337;28;20259;-71
2021/03/09 13:54:20;;;;;;;8.52;7.68;;;;;;;;;;5018675;28;20698;-71
2021/03/09 13:56:47;;;;;;;9.10;8.20;;;;;;;;;;5023092;28;20206;-70
2021/03/09 13:59:13;;;;;;;7.82;7.13;;;;;;;;;;5018496;28;20672;-71
2021/03/09 14:01:40;;;;;;;8.65;7.95;;;;;;;;;;5025976;28;20185;-71
2021/03/09 14:04:06;;;;;;;10.43;8.65;;;;;;;;;;5017713;28;20221;-70
2021/03/09 14:06:32;;;;;;;9.57;8.68;;;;;;;;;;5015777;28;20583;-72
2021/03/09 14:08:58;;;;;;;9.35;8.45;;;;;;;;;;5019990;28;20188;-72
2021/03/09 14:11:24;;;;;;;9.32;8.45;;;;;;;;;;5016805;28;20722;-71
2021/03/09 14:13:50;;;;;;;8.63;7.82;;;;;;;;;;5021422;28;20181;-71
2021/03/09 14:16:16;;;;;;;12.07;8.38;;;;;;;;;;5028651;28;20259;-71
2021/03/09 14:18:42;;;;;;;9.48;7.90;;;;;;;;;;5015635;28;20588;-71
2021/03/09 14:21:08;;;;;;;11.35;7.65;;;;;;;;;;5017669;28;20189;-71